sensor_id;sensor_type;location;lat;lon;timestamp;pressure;altitude;pressure_sealevel;temperature;humidity
28000;BME280;15328;50.860;10.562;2023-04-15T00:00:26;95581.75;;;6.29;65.92
28000;BME280;15328;50.860;10.562;2023-04-15T00:05:31;95574.84;;;6.28;66.06
28000;BME280;15328;50.860;10.562;2023-04-15T00:10:32;95576.28;;;6.24;66.45
28000;BME280;15328;50.860;10.562;2023-04-15T00:15:32;95574.47;;;6.24;66.02
28000;BME280;15328;50.860;10.562;2023-04-15T00:20:33;95574.50;;;6.17;66.24
28000;BME280;15328;50.860;10.562;2023-04-15T00:25:33;95570.66;;;6.13;66.11
28000;BME280;15328;50.860;10.562;2023-04-15T00:30:34;95562.16;;;6.11;65.86
28000;BME280;15328;50.860;10.562;2023-04-15T00:35:35;95570.66;;;6.13;66.43
28000;BME280;15328;50.860;10.562;2023-04-15T00:40:38;95570.25;;;6.16;66.75
28000;BME280;15328;50.860;10.562;2023-04-15T00:45:38;95551.94;;;6.22;66.80
28000;BME280;15328;50.860;10.562;2023-04-15T00:50:39;95552.53;;;6.24;66.37
28000;BME280;15328;50.860;10.562;2023-04-15T00:55:39;95550.47;;;6.26;66.89
28000;BME280;15328;50.860;10.562;2023-04-15T01:00:39;95545.63;;;6.23;67.08
28000;BME280;15328;50.860;10.562;2023-04-15T01:05:41;95543.38;;;6.26;67.18
28000;BME280;15328;50.860;10.562;2023-04-15T01:10:41;95530.75;;;6.28;67.21
28000;BME280;15328;50.860;10.562;2023-04-15T01:15:41;95528.09;;;6.28;66.96
28000;BME280;15328;50.860;10.562;2023-04-15T01:20:42;95516.72;;;6.34;66.43
28000;BME280;15328;50.860;10.562;2023-04-15T01:25:43;95515.03;;;6.40;66.49
28000;BME280;15328;50.860;10.562;2023-04-15T01:30:43;95509.34;;;6.43;66.42
28000;BME280;15328;50.860;10.562;2023-04-15T01:35:43;95505.88;;;6.42;66.38
28000;BME280;15328;50.860;10.562;2023-04-15T01:40:44;95491.06;;;6.41;66.95
28000;BME280;15328;50.860;10.562;2023-04-15T01:45:45;95499.56;;;6.43;66.57
28000;BME280;15328;50.860;10.562;2023-04-15T01:50:46;95504.25;;;6.41;66.88
28000;BME280;15328;50.860;10.562;2023-04-15T01:55:46;95497.38;;;6.40;67.05
28000;BME280;15328;50.860;10.562;2023-04-15T02:00:47;95494.72;;;6.40;66.95
28000;BME280;15328;50.860;10.562;2023-04-15T02:05:47;95498.13;;;6.47;66.77
28000;BME280;15328;50.860;10.562;2023-04-15T02:10:48;95499.34;;;6.45;66.83
28000;BME280;15328;50.860;10.562;2023-04-15T02:15:49;95502.38;;;6.48;66.73
28000;BME280;15328;50.860;10.562;2023-04-15T02:20:51;95492.19;;;6.52;67.10
28000;BME280;15328;50.860;10.562;2023-04-15T02:25:51;95485.84;;;6.60;67.14
28000;BME280;15328;50.860;10.562;2023-04-15T02:30:51;95497.75;;;6.69;66.88
28000;BME280;15328;50.860;10.562;2023-04-15T02:35:53;95496.88;;;6.75;66.87
28000;BME280;15328;50.860;10.562;2023-04-15T02:40:53;95499.09;;;6.78;67.12
28000;BME280;15328;50.860;10.562;2023-04-15T02:45:54;95493.13;;;6.89;66.98
28000;BME280;15328;50.860;10.562;2023-04-15T02:51:13;95502.88;;;6.89;67.07
28000;BME280;15328;50.860;10.562;2023-04-15T02:56:13;95507.16;;;7.08;66.41
28000;BME280;15328;50.860;10.562;2023-04-15T03:01:15;95501.56;;;6.98;66.78
28000;BME280;15328;50.860;10.562;2023-04-15T03:06:15;95504.38;;;7.03;66.53
28000;BME280;15328;50.860;10.562;2023-04-15T03:11:15;95498.78;;;7.11;66.76
28000;BME280;15328;50.860;10.562;2023-04-15T03:16:16;95507.13;;;7.15;66.05
28000;BME280;15328;50.860;10.562;2023-04-15T03:21:16;95508.34;;;7.12;66.08
28000;BME280;15328;50.860;10.562;2023-04-15T03:26:28;95508.34;;;7.12;65.87
28000;BME280;15328;50.860;10.562;2023-04-15T03:31:29;95503.38;;;7.22;65.90
28000;BME280;15328;50.860;10.562;2023-04-15T03:36:30;95492.06;;;7.15;65.73
28000;BME280;15328;50.860;10.562;2023-04-15T03:41:33;95494.50;;;7.17;65.65
28000;BME280;15328;50.860;10.562;2023-04-15T03:46:34;95487.41;;;7.10;66.07
28000;BME280;15328;50.860;10.562;2023-04-15T03:51:34;95491.94;;;7.03;65.95
28000;BME280;15328;50.860;10.562;2023-04-15T03:56:35;95502.63;;;7.15;65.64
28000;BME280;15328;50.860;10.562;2023-04-15T04:01:35;95490.72;;;7.06;66.02
28000;BME280;15328;50.860;10.562;2023-04-15T04:06:35;95483.22;;;7.03;66.06
28000;BME280;15328;50.860;10.562;2023-04-15T04:11:36;95498.63;;;7.06;66.16
28000;BME280;15328;50.860;10.562;2023-04-15T04:16:36;95491.38;;;7.01;66.44
28000;BME280;15328;50.860;10.562;2023-04-15T04:21:37;95495.09;;;6.94;66.52
28000;BME280;15328;50.860;10.562;2023-04-15T04:26:38;95488.72;;;7.01;66.69
28000;BME280;15328;50.860;10.562;2023-04-15T04:31:39;95497.69;;;7.00;66.92
28000;BME280;15328;50.860;10.562;2023-04-15T04:36:39;95498.06;;;7.04;66.89
28000;BME280;15328;50.860;10.562;2023-04-15T04:41:40;95499.44;;;7.06;67.16
28000;BME280;15328;50.860;10.562;2023-04-15T04:46:40;95501.44;;;7.11;66.89
28000;BME280;15328;50.860;10.562;2023-04-15T04:51:41;95499.44;;;7.06;67.61
28000;BME280;15328;50.860;10.562;2023-04-15T04:56:41;95501.94;;;7.01;67.43
28000;BME280;15328;50.860;10.562;2023-04-15T05:01:41;95496.16;;;7.11;67.63
28000;BME280;15328;50.860;10.562;2023-04-15T05:06:42;95489.09;;;7.05;67.59
28000;BME280;15328;50.860;10.562;2023-04-15T05:11:42;95490.13;;;7.04;67.86
28000;BME280;15328;50.860;10.562;2023-04-15T05:16:42;95490.00;;;7.17;67.62
28000;BME280;15328;50.860;10.562;2023-04-15T05:21:43;95498.78;;;7.11;67.93
28000;BME280;15328;50.860;10.562;2023-04-15T05:26:43;95505.31;;;7.08;68.05
28000;BME280;15328;50.860;10.562;2023-04-15T05:31:44;95500.84;;;7.09;68.08
28000;BME280;15328;50.860;10.562;2023-04-15T05:36:44;95504.88;;;7.11;67.72
28000;BME280;15328;50.860;10.562;2023-04-15T05:41:44;95491.88;;;7.10;68.49
28000;BME280;15328;50.860;10.562;2023-04-15T05:46:45;95494.72;;;7.15;68.34
28000;BME280;15328;50.860;10.562;2023-04-15T05:51:46;95492.09;;;7.08;68.43
28000;BME280;15328;50.860;10.562;2023-04-15T05:56:47;95492.09;;;7.08;68.54
28000;BME280;15328;50.860;10.562;2023-04-15T06:01:48;95493.94;;;7.08;68.60
28000;BME280;15328;50.860;10.562;2023-04-15T06:06:49;95497.38;;;7.08;69.00
28000;BME280;15328;50.860;10.562;2023-04-15T06:11:50;95493.34;;;7.06;69.24
28000;BME280;15328;50.860;10.562;2023-04-15T06:16:51;95496.38;;;7.09;69.41
28000;BME280;15328;50.860;10.562;2023-04-15T06:21:51;95497.34;;;7.15;69.28
28000;BME280;15328;50.860;10.562;2023-04-15T06:26:51;95499.34;;;7.20;69.17
28000;BME280;15328;50.860;10.562;2023-04-15T06:31:52;95497.34;;;7.15;69.35
28000;BME280;15328;50.860;10.562;2023-04-15T06:36:52;95496.25;;;7.23;69.60
28000;BME280;15328;50.860;10.562;2023-04-15T06:41:53;95494.56;;;7.28;69.11
28000;BME280;15328;50.860;10.562;2023-04-15T06:46:54;95483.97;;;7.28;69.52
28000;BME280;15328;50.860;10.562;2023-04-15T06:51:54;95496.47;;;7.21;69.45
28000;BME280;15328;50.860;10.562;2023-04-15T06:56:55;95499.34;;;7.20;69.93
28000;BME280;15328;50.860;10.562;2023-04-15T07:01:55;95491.78;;;7.23;69.87
28000;BME280;15328;50.860;10.562;2023-04-15T07:06:56;95486.91;;;7.20;70.12
28000;BME280;15328;50.860;10.562;2023-04-15T07:11:56;95494.56;;;7.28;69.56
28000;BME280;15328;50.860;10.562;2023-04-15T07:16:56;95498.91;;;7.23;69.94
28000;BME280;15328;50.860;10.562;2023-04-15T07:21:57;95510.94;;;7.37;69.76
28000;BME280;15328;50.860;10.562;2023-04-15T07:26:57;95508.38;;;7.30;69.65
28000;BME280;15328;50.860;10.562;2023-04-15T07:31:58;95510.22;;;7.30;69.67
28000;BME280;15328;50.860;10.562;2023-04-15T07:36:58;95518.38;;;7.47;69.40
28000;BME280;15328;50.860;10.562;2023-04-15T07:41:59;95514.78;;;7.41;69.54
28000;BME280;15328;50.860;10.562;2023-04-15T07:46:59;95516.44;;;7.35;69.58
28000;BME280;15328;50.860;10.562;2023-04-15T07:52:00;95530.50;;;7.36;69.84
28000;BME280;15328;50.860;10.562;2023-04-15T07:57:00;95519.06;;;7.42;70.08
28000;BME280;15328;50.860;10.562;2023-04-15T08:02:00;95520.00;;;7.48;70.23
28000;BME280;15328;50.860;10.562;2023-04-15T08:07:02;95508.09;;;7.57;70.36
28000;BME280;15328;50.860;10.562;2023-04-15T08:12:03;95523.06;;;7.63;70.26
28000;BME280;15328;50.860;10.562;2023-04-15T08:17:04;95530.78;;;7.64;70.06
28000;BME280;15328;50.860;10.562;2023-04-15T08:22:04;95532.00;;;7.68;69.71
28000;BME280;15328;50.860;10.562;2023-04-15T08:27:04;95533.75;;;7.56;69.91
28000;BME280;15328;50.860;10.562;2023-04-15T08:32:05;95535.50;;;7.62;70.27
28000;BME280;15328;50.860;10.562;2023-04-15T08:37:06;95545.06;;;7.63;70.22
28000;BME280;15328;50.860;10.562;2023-04-15T08:42:11;95545.88;;;7.64;70.11
28000;BME280;15328;50.860;10.562;2023-04-15T08:47:19;95539.53;;;7.65;70.16
28000;BME280;15328;50.860;10.562;2023-04-15T08:52:20;95545.38;;;7.73;70.44
28000;BME280;15328;50.860;10.562;2023-04-15T08:57:27;95550.09;;;7.71;70.06
28000;BME280;15328;50.860;10.562;2023-04-15T09:02:27;95553.69;;;7.77;69.81
28000;BME280;15328;50.860;10.562;2023-04-15T09:07:27;95554.34;;;7.72;70.62
28000;BME280;15328;50.860;10.562;2023-04-15T09:12:28;95556.84;;;7.86;70.23
28000;BME280;15328;50.860;10.562;2023-04-15T09:17:31;95555.13;;;7.91;70.32
28000;BME280;15328;50.860;10.562;2023-04-15T09:22:32;95550.81;;;7.97;70.76
28000;BME280;15328;50.860;10.562;2023-04-15T09:27:35;95555.59;;;8.18;70.67
28000;BME280;15328;50.860;10.562;2023-04-15T09:33:04;95569.53;;;8.14;70.17
28000;BME280;15328;50.860;10.562;2023-04-15T09:38:08;95576.75;;;8.25;70.62
28000;BME280;15328;50.860;10.562;2023-04-15T09:43:09;95575.78;;;8.19;69.61
28000;BME280;15328;50.860;10.562;2023-04-15T09:48:23;95587.25;;;8.31;69.43
28000;BME280;15328;50.860;10.562;2023-04-15T09:53:26;95595.88;;;8.27;69.63
28000;BME280;15328;50.860;10.562;2023-04-15T09:58:29;95597.84;;;8.31;69.76
28000;BME280;15328;50.860;10.562;2023-04-15T10:03:32;95600.59;;;8.25;69.80
28000;BME280;15328;50.860;10.562;2023-04-15T10:08:33;95598.81;;;8.37;69.35
28000;BME280;15328;50.860;10.562;2023-04-15T10:13:34;95601.38;;;8.44;69.61
28000;BME280;15328;50.860;10.562;2023-04-15T10:18:43;95599.41;;;8.39;69.42
28000;BME280;15328;50.860;10.562;2023-04-15T10:23:45;95600.34;;;8.45;69.49
28000;BME280;15328;50.860;10.562;2023-04-15T10:28:46;95606.69;;;8.44;69.62
28000;BME280;15328;50.860;10.562;2023-04-15T10:33:48;95614.50;;;8.39;70.37
28000;BME280;15328;50.860;10.562;2023-04-15T10:38:48;95618.66;;;8.46;69.58
28000;BME280;15328;50.860;10.562;2023-04-15T10:48:52;95628.34;;;8.71;69.17
28000;BME280;15328;50.860;10.562;2023-04-15T10:53:58;95624.97;;;8.63;69.84
28000;BME280;15328;50.860;10.562;2023-04-15T10:58:59;95627.88;;;8.74;69.21
28000;BME280;15328;50.860;10.562;2023-04-15T11:04:00;95631.06;;;8.82;69.02
28000;BME280;15328;50.860;10.562;2023-04-15T11:09:00;95632.09;;;8.93;69.25
28000;BME280;15328;50.860;10.562;2023-04-15T11:14:05;95626.09;;;8.86;68.62
28000;BME280;15328;50.860;10.562;2023-04-15T11:19:05;95635.66;;;8.87;68.63
28000;BME280;15328;50.860;10.562;2023-04-15T11:24:06;95632.53;;;8.78;68.36
28000;BME280;15328;50.860;10.562;2023-04-15T11:29:06;95631.34;;;8.74;68.70
28000;BME280;15328;50.860;10.562;2023-04-15T11:34:06;95632.03;;;8.70;69.26
28000;BME280;15328;50.860;10.562;2023-04-15T11:39:07;95645.97;;;8.65;69.02
28000;BME280;15328;50.860;10.562;2023-04-15T11:44:17;95652.88;;;8.66;69.48
28000;BME280;15328;50.860;10.562;2023-04-15T11:49:30;95659.00;;;8.66;69.53
28000;BME280;15328;50.860;10.562;2023-04-15T11:54:32;95671.53;;;8.59;69.87
28000;BME280;15328;50.860;10.562;2023-04-15T11:59:42;95670.63;;;8.65;69.75
28000;BME280;15328;50.860;10.562;2023-04-15T12:04:43;95673.41;;;8.71;69.33
28000;BME280;15328;50.860;10.562;2023-04-15T12:09:53;95678.94;;;8.69;69.71
28000;BME280;15328;50.860;10.562;2023-04-15T12:14:55;95688.88;;;8.74;70.01
28000;BME280;15328;50.860;10.562;2023-04-15T12:19:56;95680.19;;;8.85;70.16
28000;BME280;15328;50.860;10.562;2023-04-15T12:24:56;95695.06;;;8.86;69.98
28000;BME280;15328;50.860;10.562;2023-04-15T12:30:04;95698.19;;;8.94;70.13
28000;BME280;15328;50.860;10.562;2023-04-15T12:35:05;95706.97;;;8.95;70.27
28000;BME280;15328;50.860;10.562;2023-04-15T12:40:07;95712.41;;;9.00;69.91
28000;BME280;15328;50.860;10.562;2023-04-15T12:45:07;95723.16;;;9.05;69.41
28000;BME280;15328;50.860;10.562;2023-04-15T12:50:08;95730.09;;;9.06;69.73
28000;BME280;15328;50.860;10.562;2023-04-15T12:55:08;95724.78;;;9.06;69.69
28000;BME280;15328;50.860;10.562;2023-04-15T13:00:09;95734.25;;;9.14;69.74
28000;BME280;15328;50.860;10.562;2023-04-15T13:05:10;95740.41;;;9.26;69.23
28000;BME280;15328;50.860;10.562;2023-04-15T13:10:10;95737.97;;;9.13;69.21
28000;BME280;15328;50.860;10.562;2023-04-15T13:15:11;95747.53;;;9.14;69.53
28000;BME280;15328;50.860;10.562;2023-04-15T13:20:12;95752.50;;;9.22;69.66
28000;BME280;15328;50.860;10.562;2023-04-15T13:25:12;95750.34;;;9.30;69.68
28000;BME280;15328;50.860;10.562;2023-04-15T13:30:13;95763.19;;;9.34;69.75
28000;BME280;15328;50.860;10.562;2023-04-15T13:35:13;95768.63;;;9.39;69.34
28000;BME280;15328;50.860;10.562;2023-04-15T13:40:14;95772.78;;;9.46;69.30
28000;BME280;15328;50.860;10.562;2023-04-15T13:45:14;95782.84;;;9.44;69.50
28000;BME280;15328;50.860;10.562;2023-04-15T13:50:15;95781.13;;;9.50;69.52
28000;BME280;15328;50.860;10.562;2023-04-15T13:55:15;95791.72;;;9.50;68.90
28000;BME280;15328;50.860;10.562;2023-04-15T14:00:16;95797.03;;;9.50;69.19
28000;BME280;15328;50.860;10.562;2023-04-15T14:05:17;95803.38;;;9.49;68.90
28000;BME280;15328;50.860;10.562;2023-04-15T14:10:17;95800.16;;;9.47;69.35
28000;BME280;15328;50.860;10.562;2023-04-15T14:15:17;95816.41;;;9.39;69.53
28000;BME280;15328;50.860;10.562;2023-04-15T14:20:18;95814.81;;;9.49;69.59
28000;BME280;15328;50.860;10.562;2023-04-15T14:25:18;95829.13;;;9.48;69.15
28000;BME280;15328;50.860;10.562;2023-04-15T14:30:19;95830.63;;;9.44;69.63
28000;BME280;15328;50.860;10.562;2023-04-15T14:35:19;95838.22;;;9.41;69.19
28000;BME280;15328;50.860;10.562;2023-04-15T14:40:20;95843.63;;;9.34;69.65
28000;BME280;15328;50.860;10.562;2023-04-15T14:45:21;95851.94;;;9.38;69.75
28000;BME280;15328;50.860;10.562;2023-04-15T14:50:21;95854.47;;;9.33;69.62
28000;BME280;15328;50.860;10.562;2023-04-15T14:55:22;95861.22;;;9.28;70.12
28000;BME280;15328;50.860;10.562;2023-04-15T15:00:22;95866.72;;;9.34;70.38
28000;BME280;15328;50.860;10.562;2023-04-15T15:05:22;95861.53;;;9.39;70.12
28000;BME280;15328;50.860;10.562;2023-04-15T15:10:23;95866.63;;;9.40;70.43
28000;BME280;15328;50.860;10.562;2023-04-15T15:15:23;95874.72;;;9.45;70.20
28000;BME280;15328;50.860;10.562;2023-04-15T15:20:24;95878.19;;;9.46;69.89
28000;BME280;15328;50.860;10.562;2023-04-15T15:25:24;95889.03;;;9.44;70.55
28000;BME280;15328;50.860;10.562;2023-04-15T15:30:25;95885.81;;;9.54;69.63
28000;BME280;15328;50.860;10.562;2023-04-15T15:35:25;95892.03;;;9.48;69.62
28000;BME280;15328;50.860;10.562;2023-04-15T15:40:26;95895.13;;;9.45;69.67
28000;BME280;15328;50.860;10.562;2023-04-15T15:45:26;95901.72;;;9.42;70.28
28000;BME280;15328;50.860;10.562;2023-04-15T15:50:26;95899.41;;;9.46;69.80
28000;BME280;15328;50.860;10.562;2023-04-15T15:55:27;95906.78;;;9.44;70.11
28000;BME280;15328;50.860;10.562;2023-04-15T16:00:27;95908.06;;;9.41;70.36
28000;BME280;15328;50.860;10.562;2023-04-15T16:05:28;95918.69;;;9.41;70.61
28000;BME280;15328;50.860;10.562;2023-04-15T16:10:28;95927.91;;;9.39;70.77
28000;BME280;15328;50.860;10.562;2023-04-15T16:15:28;95932.97;;;9.40;70.41
28000;BME280;15328;50.860;10.562;2023-04-15T16:20:29;95937.25;;;9.41;70.45
28000;BME280;15328;50.860;10.562;2023-04-15T16:25:30;95942.94;;;9.45;70.48
28000;BME280;15328;50.860;10.562;2023-04-15T16:30:30;95936.38;;;9.47;70.57
28000;BME280;15328;50.860;10.562;2023-04-15T16:35:31;95951.03;;;9.50;70.38
28000;BME280;15328;50.860;10.562;2023-04-15T16:40:31;95949.06;;;9.45;70.43
28000;BME280;15328;50.860;10.562;2023-04-15T16:45:32;95943.06;;;9.50;70.28
28000;BME280;15328;50.860;10.562;2023-04-15T16:50:32;95952.97;;;9.43;70.45
28000;BME280;15328;50.860;10.562;2023-04-15T16:55:33;95956.66;;;9.42;70.52
28000;BME280;15328;50.860;10.562;2023-04-15T17:00:33;95968.31;;;9.41;70.69
28000;BME280;15328;50.860;10.562;2023-04-15T17:05:36;95969.03;;;9.48;70.43
28000;BME280;15328;50.860;10.562;2023-04-15T17:10:36;95979.50;;;9.43;70.72
28000;BME280;15328;50.860;10.562;2023-04-15T17:15:37;95985.84;;;9.42;70.76
28000;BME280;15328;50.860;10.562;2023-04-15T17:20:38;95990.22;;;9.36;71.22
28000;BME280;15328;50.860;10.562;2023-04-15T17:25:38;95996.78;;;9.34;71.54
28000;BME280;15328;50.860;10.562;2023-04-15T17:30:39;95996.78;;;9.34;71.74
28000;BME280;15328;50.860;10.562;2023-04-15T17:35:39;96004.88;;;9.39;71.36
28000;BME280;15328;50.860;10.562;2023-04-15T17:40:40;96008.78;;;9.36;71.66
28000;BME280;15328;50.860;10.562;2023-04-15T17:45:40;96011.66;;;9.35;71.91
28000;BME280;15328;50.860;10.562;2023-04-15T17:50:40;96010.19;;;9.39;71.77
28000;BME280;15328;50.860;10.562;2023-04-15T17:55:41;96020.22;;;9.37;71.56
28000;BME280;15328;50.860;10.562;2023-04-15T18:00:41;96031.06;;;9.35;71.88
28000;BME280;15328;50.860;10.562;2023-04-15T18:05:42;96032.50;;;9.31;71.80
28000;BME280;15328;50.860;10.562;2023-04-15T18:10:42;96034.53;;;9.36;71.83
28000;BME280;15328;50.860;10.562;2023-04-15T18:15:42;96044.47;;;9.40;71.64
28000;BME280;15328;50.860;10.562;2023-04-15T18:20:43;96050.38;;;9.42;72.03
28000;BME280;15328;50.860;10.562;2023-04-15T18:25:43;96057.69;;;9.47;71.72
28000;BME280;15328;50.860;10.562;2023-04-15T18:30:44;96065.44;;;9.48;71.32
28000;BME280;15328;50.860;10.562;2023-04-15T18:35:44;96071.25;;;9.39;72.08
28000;BME280;15328;50.860;10.562;2023-04-15T18:40:45;96081.50;;;9.35;72.45
28000;BME280;15328;50.860;10.562;2023-04-15T18:45:45;96092.03;;;9.42;72.22
28000;BME280;15328;50.860;10.562;2023-04-15T18:50:46;96095.13;;;9.39;72.85
28000;BME280;15328;50.860;10.562;2023-04-15T18:55:47;96098.75;;;9.44;72.20
28000;BME280;15328;50.860;10.562;2023-04-15T19:00:47;96109.28;;;9.33;72.89
28000;BME280;15328;50.860;10.562;2023-04-15T19:05:47;96107.97;;;9.42;72.61
28000;BME280;15328;50.860;10.562;2023-04-15T19:10:48;96118.00;;;9.40;72.95
28000;BME280;15328;50.860;10.562;2023-04-15T19:15:48;96119.03;;;9.39;73.10
28000;BME280;15328;50.860;10.562;2023-04-15T19:20:49;96124.72;;;9.42;73.31
28000;BME280;15328;50.860;10.562;2023-04-15T19:25:51;96131.16;;;9.53;72.61
28000;BME280;15328;50.860;10.562;2023-04-15T19:30:51;96135.28;;;9.49;73.13
28000;BME280;15328;50.860;10.562;2023-04-15T19:35:52;96148.53;;;9.49;73.31
28000;BME280;15328;50.860;10.562;2023-04-15T19:40:52;96151.19;;;9.49;73.07
28000;BME280;15328;50.860;10.562;2023-04-15T19:45:53;96152.66;;;9.45;73.07
28000;BME280;15328;50.860;10.562;2023-04-15T19:50:53;96151.19;;;9.49;73.09
28000;BME280;15328;50.860;10.562;2023-04-15T19:55:54;96143.81;;;9.51;73.43
28000;BME280;15328;50.860;10.562;2023-04-15T20:00:54;96154.81;;;9.54;73.01
28000;BME280;15328;50.860;10.562;2023-04-15T20:05:55;96154.19;;;9.59;73.01
28000;BME280;15328;50.860;10.562;2023-04-15T20:10:56;96156.00;;;9.58;73.38
28000;BME280;15328;50.860;10.562;2023-04-15T20:15:56;96159.88;;;9.63;73.36
28000;BME280;15328;50.860;10.562;2023-04-15T20:20:56;96166.38;;;9.67;73.00
28000;BME280;15328;50.860;10.562;2023-04-15T20:25:57;96169.84;;;9.67;73.25
28000;BME280;15328;50.860;10.562;2023-04-15T20:30:59;96163.13;;;9.65;72.78
28000;BME280;15328;50.860;10.562;2023-04-15T20:36:00;96171.91;;;9.65;73.27
28000;BME280;15328;50.860;10.562;2023-04-15T20:41:01;96172.06;;;9.70;73.22
28000;BME280;15328;50.860;10.562;2023-04-15T20:46:02;96169.41;;;9.70;73.12
28000;BME280;15328;50.860;10.562;2023-04-15T20:51:02;96177.75;;;9.74;72.86
28000;BME280;15328;50.860;10.562;2023-04-15T20:56:02;96186.53;;;9.74;72.82
28000;BME280;15328;50.860;10.562;2023-04-15T21:01:03;96193.03;;;9.78;72.93
28000;BME280;15328;50.860;10.562;2023-04-15T21:06:03;96185.06;;;9.78;72.94
28000;BME280;15328;50.860;10.562;2023-04-15T21:11:04;96191.72;;;9.87;73.07
28000;BME280;15328;50.860;10.562;2023-04-15T21:16:04;96192.38;;;9.83;72.66
28000;BME280;15328;50.860;10.562;2023-04-15T21:21:05;96195.41;;;9.86;72.73
28000;BME280;15328;50.860;10.562;2023-04-15T21:26:05;96207.81;;;9.93;72.94
28000;BME280;15328;50.860;10.562;2023-04-15T21:31:06;96209.53;;;9.87;72.86
28000;BME280;15328;50.860;10.562;2023-04-15T21:36:06;96219.13;;;9.88;72.87
28000;BME280;15328;50.860;10.562;2023-04-15T21:41:07;96220.06;;;9.94;72.42
28000;BME280;15328;50.860;10.562;2023-04-15T21:46:08;96221.69;;;9.95;72.97
28000;BME280;15328;50.860;10.562;2023-04-15T21:51:12;96242.53;;;9.98;72.87
28000;BME280;15328;50.860;10.562;2023-04-15T21:56:12;96239.72;;;9.93;72.94
28000;BME280;15328;50.860;10.562;2023-04-15T22:01:13;96242.38;;;9.93;72.90
28000;BME280;15328;50.860;10.562;2023-04-15T22:06:13;96246.44;;;9.95;72.76
28000;BME280;15328;50.860;10.562;2023-04-15T22:11:23;96244.81;;;9.94;72.87
28000;BME280;15328;50.860;10.562;2023-04-15T22:16:26;96247.09;;;9.90;72.86
28000;BME280;15328;50.860;10.562;2023-04-15T22:21:27;96246.88;;;9.92;73.25
28000;BME280;15328;50.860;10.562;2023-04-15T22:26:27;96253.81;;;9.93;73.09
28000;BME280;15328;50.860;10.562;2023-04-15T22:31:28;96257.72;;;9.90;73.37
28000;BME280;15328;50.860;10.562;2023-04-15T22:36:28;96266.31;;;9.86;73.64
28000;BME280;15328;50.860;10.562;2023-04-15T22:41:30;96267.75;;;9.88;73.77
28000;BME280;15328;50.860;10.562;2023-04-15T22:46:31;96280.59;;;9.91;73.88
28000;BME280;15328;50.860;10.562;2023-04-15T22:51:31;96279.19;;;9.89;73.42
28000;BME280;15328;50.860;10.562;2023-04-15T22:56:32;96289.16;;;9.94;73.52
28000;BME280;15328;50.860;10.562;2023-04-15T23:01:33;96287.09;;;9.96;73.26
28000;BME280;15328;50.860;10.562;2023-04-15T23:06:34;96285.69;;;9.93;73.54
28000;BME280;15328;50.860;10.562;2023-04-15T23:11:34;96280.09;;;10.01;73.49
28000;BME280;15328;50.860;10.562;2023-04-15T23:16:35;96286.22;;;10.02;73.08
28000;BME280;15328;50.860;10.562;2023-04-15T23:21:35;96293.75;;;10.05;73.03
28000;BME280;15328;50.860;10.562;2023-04-15T23:26:36;96299.72;;;10.00;72.95
28000;BME280;15328;50.860;10.562;2023-04-15T23:31:37;96289.47;;;10.04;73.19
28000;BME280;15328;50.860;10.562;2023-04-15T23:36:38;96296.84;;;10.02;73.31
28000;BME280;15328;50.860;10.562;2023-04-15T23:41:38;96299.44;;;10.08;73.27
28000;BME280;15328;50.860;10.562;2023-04-15T23:46:39;96298.03;;;10.06;73.63
28000;BME280;15328;50.860;10.562;2023-04-15T23:51:40;96303.56;;;10.04;73.01
28000;BME280;15328;50.860;10.562;2023-04-15T23:56:40;96306.16;;;10.11;72.75
